This is the latest recevied weather packets stored in our database for station/object SV9FBP. If no packets are shown the sender has not sent any weather packets the latest 1 day(s).
| Time | Temp. | Humidity | Pressure | Rain* | Wind** | Luminosity | Snow |
|---|---|---|---|---|---|---|---|
| 1836274381 | 22.78° C | 61% | 1015.7 hPa | 0 mm | 8.05 m/s, 0° | - | - |
| 1836274228 | 22.78° C | 60% | 1015.7 hPa | 0 mm | 5.36 m/s, 0° | - | - |
| 1778013440 | 17.22° C | 46% | 1015.1 hPa | 0 mm | 1.34 m/s, 45° | - | - |
| 1778012539 | 17.22° C | 46% | 1015 hPa | 0 mm | 1.79 m/s, 0° | - | - |
| 1778011640 | 17.22° C | 47% | 1015.1 hPa | 0 mm | 1.79 m/s, 315° | - | - |
| 1778010735 | 17.22° C | 48% | 1015.3 hPa | 0 mm | 2.68 m/s, 0° | - | - |
| 1778009833 | 17.78° C | 45% | 1015.2 hPa | 0 mm | 1.79 m/s, 0° | - | - |
| 1778008930 | 17.78° C | 45% | 1015.2 hPa | 0 mm | 1.34 m/s, 293° | - | - |
| 1778008028 | 17.78° C | 44% | 1015.2 hPa | 0 mm | 1.79 m/s, 315° | - | - |
| 1778007125 | 17.78° C | 44% | 1015.1 hPa | 0 mm | 3.13 m/s, 315° | - | - |
| 1778006224 | 17.78° C | 45% | 1014.9 hPa | 0 mm | 1.79 m/s, 45° | - | - |
| 1778005321 | 18.33° C | 47% | 1014.8 hPa | 0 mm | 1.34 m/s, 90° | - | - |
| 1778004419 | 18.33° C | 50% | 1014.7 hPa | 0 mm | 0.89 m/s, 0° | - | - |
| 1778003518 | 18.89° C | 46% | 1014.8 hPa | 0 mm | 0.89 m/s, 0° | - | - |
| 1778002616 | 19.44° C | 44% | 1014.4 hPa | 0 mm | 1.79 m/s, 90° | - | - |
| 1778001713 | 19.44° C | 45% | 1014.3 hPa | 0 mm | 1.79 m/s, 45° | - | - |
| 1778000811 | 20° C | 52% | 1014.4 hPa | 0 mm | 1.79 m/s, 180° | - | - |
| 1777999909 | 20° C | 46% | 1014.4 hPa | 0 mm | 1.79 m/s, 225° | - | - |
| 1777999006 | 20.56° C | 47% | 1014.2 hPa | 0 mm | 1.79 m/s, 135° | - | - |
| 1777998104 | 20.56° C | 52% | 1014.2 hPa | 0 mm | 3.58 m/s, 180° | - | - |
| 1777997202 | 21.11° C | 50% | 1014.2 hPa | 0 mm | 2.68 m/s, 158° | - | - |
| 1777996300 | 21.11° C | 46% | 1014.2 hPa | 0 mm | 3.13 m/s, 180° | - | - |
| 1777995398 | 21.11° C | 47% | 1014.2 hPa | 0 mm | 1.79 m/s, 180° | - | - |
| 1777994496 | 21.67° C | 51% | 1014.4 hPa | 0 mm | 2.68 m/s, 180° | - | - |
| 1777993593 | 21.67° C | 47% | 1014.4 hPa | 0 mm | 3.13 m/s, 180° | - | - |
* Rain latest hour (hover to see other rain measurements)
** Current wind speed in m/s (hover to see current wind gust speed)